Time;durP1;ratioP1;P1;durP2;ratioP2;P2;SDS_P1;SDS_P2;PMS_P1;PMS_P2;Temp;Humidity;BMP_temperature;BMP_pressure;BME280_temperature;BME280_humidity;BME280_pressure;Samples;Min_cycle;Max_cycle;Signal;HPM_P1;HPM_P2
2022/06/15 00:01:01;;;;;;;4.57;1.80;;;;;;;8.71;66.79;101157.56;1713854;82;21533;-81
2022/06/15 00:03:33;;;;;;;3.33;1.67;;;;;;;8.68;67.00;101156.31;1714083;82;21575;-80
2022/06/15 00:06:13;;;;;;;3.33;1.70;;;;;;;8.68;67.18;101155.45;1713800;82;21817;-85
2022/06/15 00:08:43;;;;;;;4.30;1.70;;;;;;;8.66;67.28;101156.77;1714093;82;21443;-82
2022/06/15 00:11:28;;;;;;;2.80;1.62;;;;;;;8.63;67.38;101157.28;1713995;82;26495;-82
2022/06/15 00:13:59;;;;;;;4.77;1.70;;;;;;;8.61;67.60;101157.30;1713456;82;20934;-86
2022/06/15 00:16:27;;;;;;;3.20;1.57;;;;;;;8.61;67.55;101159.91;1713711;82;21609;-80
2022/06/15 00:18:54;;;;;;;4.07;1.77;;;;;;;8.55;67.34;101160.47;1694311;82;21077;-86
2022/06/15 00:21:21;;;;;;;4.97;1.60;;;;;;;8.47;67.26;101157.52;1709464;82;21571;-83
2022/06/15 00:23:50;;;;;;;3.33;1.73;;;;;;;8.44;67.49;101156.27;1705317;82;21047;-81
2022/06/15 00:26:17;;;;;;;3.87;1.67;;;;;;;8.47;67.70;101158.83;1712580;82;21536;-82
2022/06/15 00:28:46;;;;;;;3.40;1.57;;;;;;;8.43;67.56;101157.17;1705505;82;21540;-79
2022/06/15 00:31:13;;;;;;;4.43;1.73;;;;;;;8.41;67.73;101156.77;1702984;82;21885;-84
2022/06/15 00:33:40;;;;;;;5.07;1.73;;;;;;;8.39;67.84;101159.84;1716304;82;21034;-86
2022/06/15 00:36:12;;;;;;;2.97;1.43;;;;;;;8.35;67.90;101156.39;1716041;82;20999;-86
2022/06/15 00:38:47;;;;;;;5.70;1.73;;;;;;;8.34;68.14;101150.76;1716292;82;21011;-80
2022/06/15 00:41:22;;;;;;;6.47;1.80;;;;;;;8.34;68.22;101154.67;1710221;82;21078;-82
2022/06/15 00:44:00;;;;;;;3.60;1.60;;;;;;;8.31;68.24;101155.14;1700390;82;21285;-81
2022/06/15 00:46:40;;;;;;;3.23;1.70;;;;;;;8.30;68.45;101159.52;1716023;82;20975;-85
2022/06/15 00:49:37;;;;;;;3.47;1.37;;;;;;;8.27;68.46;101159.11;1716555;82;28590;-80
2022/06/15 00:52:20;;;;;;;4.90;1.77;;;;;;;8.22;68.48;101160.07;1720485;82;21595;-85
2022/06/15 00:54:50;;;;;;;2.90;1.73;;;;;;;8.21;68.86;101159.66;1720673;82;21317;-85
2022/06/15 00:57:19;;;;;;;5.37;1.72;;;;;;;8.25;68.79;101157.41;1720811;82;21189;-79
2022/06/15 00:59:56;;;;;;;6.03;1.83;;;;;;;8.19;68.63;101160.13;1694031;82;21086;-79
2022/06/15 01:02:26;;;;;;;2.90;1.47;;;;;;;8.19;68.87;101155.75;1720640;82;20998;-87
2022/06/15 01:05:00;;;;;;;2.73;1.40;;;;;;;8.21;68.83;101157.05;1720806;81;21073;-81
2022/06/15 01:07:51;;;;;;;3.93;1.43;;;;;;;8.17;68.88;101159.27;1720585;82;21031;-87
2022/06/15 01:10:25;;;;;;;;;;;;;;;8.15;68.82;101157.15;1722692;81;21183;-83
2022/06/15 01:13:26;;;;;;;4.03;1.60;;;;;;;8.05;68.85;101161.18;1720337;82;20189;-80
2022/06/15 01:16:20;;;;;;;5.70;1.57;;;;;;;7.98;69.01;101159.98;1720942;82;21026;-86
2022/06/15 01:19:00;;;;;;;3.50;1.90;;;;;;;7.93;69.06;101157.90;1720093;82;21635;-83
2022/06/15 01:21:33;;;;;;;4.33;1.97;;;;;;;7.91;69.41;101161.83;1721040;82;21022;-79
2022/06/15 01:24:19;;;;;;;5.00;1.97;;;;;;;7.92;69.71;101158.77;1720432;82;21120;-79
2022/06/15 01:27:05;;;;;;;5.00;2.30;;;;;;;7.94;69.92;101165.69;1719601;81;20970;-87
2022/06/15 01:30:13;;;;;;;3.40;2.10;;;;;;;7.97;70.30;101160.88;1690600;82;21090;-86
2022/06/15 01:33:04;;;;;;;5.70;2.07;;;;;;;8.05;70.94;101155.10;1652435;85;21059;-86
2022/06/15 01:35:55;;;;;;;;;;;;;;;8.11;70.77;101152.39;1655041;84;21089;-80
2022/06/15 01:38:49;;;;;;;4.43;2.10;;;;;;;8.10;70.82;101155.91;1608392;88;20858;-84
2022/06/15 01:41:24;;;;;;;5.87;2.13;;;;;;;8.07;70.32;101155.95;1654297;85;22329;-79
2022/06/15 01:43:59;;;;;;;4.63;2.30;;;;;;;7.99;70.16;101149.53;1661721;84;21062;-81
2022/06/15 01:46:29;;;;;;;5.20;1.63;;;;;;;7.95;70.22;101151.78;1661469;84;21017;-83
2022/06/15 01:48:58;;;;;;;4.03;2.05;;;;;;;7.92;70.32;101150.94;1663359;84;21115;-83
2022/06/15 01:51:30;;;;;;;5.50;2.17;;;;;;;7.90;70.39;101141.84;1663312;84;21128;-80
2022/06/15 01:54:03;;;;;;;4.13;2.00;;;;;;;7.92;70.36;101144.41;1663376;84;21576;-86
2022/06/15 01:56:36;;;;;;;3.60;1.90;;;;;;;7.86;70.27;101144.05;1663477;84;21034;-87
2022/06/15 01:59:11;;;;;;;5.00;1.90;;;;;;;7.85;70.37;101148.01;1663202;84;21077;-79
2022/06/15 02:02:02;;;;;;;4.77;2.20;;;;;;;7.79;70.34;101144.59;1658710;84;21206;-86
2022/06/15 02:04:53;;;;;;;3.50;2.02;;;;;;;7.75;70.47;101147.25;1657195;84;21179;-80
2022/06/15 02:07:48;;;;;;;4.57;2.03;;;;;;;7.69;70.46;101150.81;1662825;84;22031;-86
2022/06/15 02:10:33;;;;;;;5.33;2.00;;;;;;;7.66;70.83;101153.46;1675713;83;21097;-86
2022/06/15 02:13:08;;;;;;;4.10;2.13;;;;;;;7.74;71.23;101152.92;1691351;82;21154;-87
2022/06/15 02:15:42;;;;;;;3.50;1.67;;;;;;;7.76;71.32;101147.25;1711288;82;21318;-80
2022/06/15 02:18:13;;;;;;;4.77;1.77;;;;;;;7.78;71.21;101148.52;1677774;82;21468;-80
2022/06/15 02:20:46;;;;;;;4.20;1.97;;;;;;;7.76;71.10;101148.55;1711201;82;21050;-86
2022/06/15 02:23:15;;;;;;;8.27;1.87;;;;;;;7.71;70.85;101146.44;1710928;82;20995;-80
2022/06/15 02:25:49;;;;;;;4.97;1.80;;;;;;;7.67;71.11;101144.73;1711482;82;20995;-85
2022/06/15 02:28:19;;;;;;;3.43;1.70;;;;;;;7.66;71.12;101139.11;1716200;82;21101;-87
2022/06/15 02:30:47;;;;;;;4.15;1.90;;;;;;;7.64;71.04;101136.09;1716938;82;21616;-86
2022/06/15 02:33:31;;;;;;;3.50;1.80;;;;;;;7.57;70.90;101135.33;1697710;82;21106;-84
2022/06/15 02:36:01;;;;;;;3.70;1.53;;;;;;;7.49;70.72;101132.81;1713902;82;21101;-86
2022/06/15 02:38:32;;;;;;;5.28;1.92;;;;;;;7.42;70.87;101135.06;1716667;82;21054;-86
2022/06/15 02:40:59;;;;;;;4.65;2.00;;;;;;;7.39;71.05;101131.19;1717020;82;21543;-84
2022/06/15 02:43:30;;;;;;;5.03;2.03;;;;;;;7.35;71.01;101133.42;1716420;82;21286;-87
2022/06/15 02:46:01;;;;;;;5.13;1.77;;;;;;;7.30;70.98;101128.25;1716592;82;21038;-83
2022/06/15 02:48:30;;;;;;;4.60;1.60;;;;;;;7.25;70.94;101131.80;1716781;83;20995;-87
2022/06/15 02:51:28;;;;;;;4.33;1.90;;;;;;;7.22;71.25;101135.75;1716726;82;21069;-84
2022/06/15 02:54:03;;;;;;;6.40;1.80;;;;;;;7.24;71.48;101137.45;1716086;82;21537;-87
2022/06/15 02:56:32;;;;;;;2.77;1.63;;;;;;;7.23;71.42;101140.92;1716492;82;22109;-86
2022/06/15 02:59:02;;;;;;;5.73;2.20;;;;;;;7.21;71.51;101142.71;1716376;82;20991;-83
2022/06/15 03:01:30;;;;;;;7.07;1.83;;;;;;;7.21;71.58;101143.16;1716408;82;20872;-80
2022/06/15 03:03:58;;;;;;;4.03;1.77;;;;;;;7.21;71.67;101149.67;1716802;82;21018;-80
2022/06/15 03:06:30;;;;;;;4.87;1.70;;;;;;;7.18;71.62;101146.66;1716467;82;21041;-88
2022/06/15 03:09:01;;;;;;;3.87;1.70;;;;;;;7.14;71.63;101139.73;1715795;82;21141;-80
2022/06/15 03:11:31;;;;;;;3.60;1.80;;;;;;;7.11;71.65;101144.98;1716191;82;20994;-85
2022/06/15 03:14:00;;;;;;;4.73;1.83;;;;;;;7.10;71.69;101140.66;1716227;82;21046;-86
2022/06/15 03:16:27;;;;;;;6.23;2.00;;;;;;;7.08;72.01;101137.20;1716426;82;20988;-88
2022/06/15 03:18:55;;;;;;;6.03;1.97;;;;;;;7.12;72.05;101137.58;1716681;82;21082;-84
2022/06/15 03:21:22;;;;;;;6.80;2.00;;;;;;;7.12;72.08;101146.28;1698269;83;21154;-87
2022/06/15 03:23:52;;;;;;;4.67;2.07;;;;;;;7.10;71.98;101145.43;1724186;82;20995;-87
2022/06/15 03:26:19;;;;;;;3.70;2.00;;;;;;;7.13;72.22;101144.53;1718921;82;20927;-85
2022/06/15 03:28:46;;;;;;;4.63;2.23;;;;;;;7.15;72.40;101141.48;1713976;82;21069;-86
2022/06/15 03:31:15;;;;;;;4.40;1.90;;;;;;;7.21;72.48;101150.98;1713983;82;21134;-87
2022/06/15 03:33:42;;;;;;;6.07;2.30;;;;;;;7.23;72.49;101141.38;1689548;83;21148;-86
2022/06/15 03:36:11;;;;;;;4.23;2.03;;;;;;;7.23;72.69;101143.53;1694197;82;21035;-79
2022/06/15 03:38:39;;;;;;;6.73;2.20;;;;;;;7.30;73.07;101146.95;1713764;82;21019;-87
2022/06/15 03:41:09;;;;;;;3.20;2.03;;;;;;;7.36;73.06;101145.13;1712970;82;21054;-86
2022/06/15 03:43:38;;;;;;;4.28;2.22;;;;;;;7.43;73.24;101139.41;1713967;82;21031;-87
2022/06/15 03:46:07;;;;;;;4.03;2.00;;;;;;;7.52;73.35;101145.81;1713761;82;21200;-86
2022/06/15 03:48:36;;;;;;;5.63;2.10;;;;;;;7.60;73.32;101150.49;1713574;82;21038;-86
2022/06/15 03:51:04;;;;;;;3.93;2.17;;;;;;;7.68;73.43;101150.40;1714057;82;21097;-87
2022/06/15 03:53:33;;;;;;;6.40;2.00;;;;;;;7.74;73.36;101146.39;1714006;82;20999;-86
2022/06/15 03:56:00;;;;;;;5.10;2.30;;;;;;;7.80;73.32;101150.67;1713899;82;21090;-87
2022/06/15 03:58:27;;;;;;;4.13;1.87;;;;;;;7.88;73.61;101146.20;1714084;82;21071;-80
2022/06/15 04:00:55;;;;;;;5.30;2.20;;;;;;;8.01;73.66;101142.99;1714166;82;21389;-83
2022/06/15 04:03:22;;;;;;;5.63;2.40;;;;;;;8.11;73.59;101144.56;1713844;82;21911;-87
2022/06/15 04:05:57;;;;;;;2.53;1.93;;;;;;;8.19;73.66;101141.39;1713964;82;21586;-87
2022/06/15 04:08:37;;;;;;;6.43;2.40;;;;;;;8.30;73.80;101147.76;1713360;82;21026;-81
2022/06/15 04:13:45;;;;;;;6.27;2.33;;;;;;;8.51;73.85;101142.67;1707697;82;21057;-83
2022/06/15 04:16:15;;;;;;;4.43;2.13;;;;;;;8.62;73.88;101143.36;1693900;83;21075;-87
2022/06/15 04:18:43;;;;;;;5.70;2.10;;;;;;;8.75;73.88;101148.36;1713343;82;21022;-86
2022/06/15 04:21:12;;;;;;;5.07;2.17;;;;;;;8.88;74.20;101150.73;1714045;82;20995;-87
2022/06/15 04:23:39;;;;;;;4.60;2.10;;;;;;;9.02;74.12;101147.01;1713755;82;21142;-85
2022/06/15 04:26:07;;;;;;;5.27;2.43;;;;;;;9.16;74.10;101152.38;1713936;82;21078;-87
2022/06/15 04:28:41;;;;;;;7.27;2.67;;;;;;;9.32;74.08;101146.87;1715401;82;21046;-81
2022/06/15 04:31:10;;;;;;;3.93;2.50;;;;;;;9.50;74.00;101150.40;1715448;82;20931;-86
2022/06/15 04:33:38;;;;;;;4.60;2.30;;;;;;;9.65;73.74;101158.85;1692814;82;21615;-85
2022/06/15 04:36:07;;;;;;;4.43;2.00;;;;;;;9.78;73.78;101155.94;1715293;82;21120;-87
2022/06/15 04:38:35;;;;;;;5.33;2.67;;;;;;;9.95;73.75;101157.30;1716031;82;21046;-85
2022/06/15 04:41:04;;;;;;;7.70;2.87;;;;;;;10.07;73.45;101155.73;1715663;82;20999;-90
2022/06/15 04:43:32;;;;;;;6.80;2.30;;;;;;;10.15;73.16;101155.11;1716179;82;20927;-89
2022/06/15 04:46:00;;;;;;;4.23;2.57;;;;;;;10.23;72.93;101160.17;1716546;82;21014;-89
2022/06/15 04:48:28;;;;;;;8.73;2.63;;;;;;;10.30;72.97;101155.67;1716249;82;21781;-81
2022/06/15 04:50:56;;;;;;;4.73;2.67;;;;;;;10.39;72.99;101158.06;1716235;82;21038;-81
2022/06/15 04:53:25;;;;;;;7.43;2.20;;;;;;;10.48;73.20;101150.00;1715835;82;21429;-89
2022/06/15 04:55:53;;;;;;;4.87;2.30;;;;;;;10.64;73.58;101146.52;1716096;82;21035;-90
2022/06/15 04:58:21;;;;;;;5.93;2.40;;;;;;;10.78;73.69;101147.48;1716497;82;21098;-86
2022/06/15 05:00:50;;;;;;;6.10;2.58;;;;;;;10.87;73.55;101145.49;1715710;82;21856;-87
2022/06/15 05:03:19;;;;;;;6.73;2.60;;;;;;;11.01;73.63;101150.83;1716203;82;21665;-85
2022/06/15 05:05:47;;;;;;;5.20;2.30;;;;;;;11.14;73.55;101146.94;1695777;83;21551;-85
2022/06/15 05:08:14;;;;;;;7.20;2.80;;;;;;;11.26;73.58;101145.31;1716586;82;21041;-84
2022/06/15 05:10:44;;;;;;;7.43;2.70;;;;;;;11.40;73.68;101146.23;1716057;82;21046;-84
2022/06/15 05:13:11;;;;;;;5.27;2.47;;;;;;;11.50;73.75;101145.08;1715334;82;21191;-85
2022/06/15 05:15:40;;;;;;;5.30;2.40;;;;;;;11.60;73.55;101143.02;1696124;83;21034;-82
2022/06/15 05:18:09;;;;;;;6.17;2.13;;;;;;;11.68;73.69;101142.34;1714857;82;21041;-92
2022/06/15 05:20:39;;;;;;;5.67;2.20;;;;;;;11.79;73.34;101148.14;1716275;82;20990;-86
2022/06/15 05:23:09;;;;;;;;;;;;;;;11.93;73.54;101151.69;1719157;82;21432;-87
2022/06/15 05:25:56;;;;;;;5.53;2.73;;;;;;;12.04;73.63;101147.42;1716347;82;21155;-87
2022/06/15 05:28:24;;;;;;;5.30;2.50;;;;;;;12.16;73.44;101150.97;1713257;82;21102;-89
2022/06/15 05:31:14;;;;;;;5.40;2.10;;;;;;;12.28;73.42;101151.91;1711640;82;20995;-86
2022/06/15 05:33:41;;;;;;;5.47;2.47;;;;;;;12.38;73.21;101152.45;1687718;82;21016;-87
2022/06/15 05:36:14;;;;;;;4.03;2.10;;;;;;;12.49;72.95;101146.85;1691606;82;21046;-86
2022/06/15 05:38:52;;;;;;;6.17;2.30;;;;;;;12.59;72.79;101142.16;1711423;82;21135;-92
2022/06/15 05:41:15;;;;;;;4.65;2.05;;;;;;;12.68;72.65;101149.73;1707608;83;21666;-88
2022/06/15 05:44:00;;;;;;;3.90;2.25;;;;;;;12.80;72.78;101147.98;1706480;82;21493;-90
2022/06/15 05:46:30;;;;;;;4.15;2.17;;;;;;;12.92;72.64;101142.31;1679749;82;21078;-86
2022/06/15 05:49:02;;;;;;;3.75;2.15;;;;;;;13.04;72.42;101143.65;1713693;82;21536;-87
2022/06/15 05:51:37;;;;;;;5.20;1.90;;;;;;;13.19;72.32;101135.69;1713277;82;21389;-89
2022/06/15 05:54:11;;;;;;;3.17;1.75;;;;;;;13.32;72.13;101142.23;1709685;82;21539;-88
2022/06/15 05:56:38;;;;;;;4.25;1.50;;;;;;;13.47;71.86;101138.63;1712698;82;21090;-91
2022/06/15 05:59:06;;;;;;;5.47;1.90;;;;;;;13.58;71.23;101138.64;1715713;82;21035;-93
2022/06/15 06:01:36;;;;;;;4.03;1.37;;;;;;;13.70;70.97;101139.95;1710244;82;21493;-92
2022/06/15 06:04:04;;;;;;;;;;;;;;;13.84;70.23;101140.27;1710923;82;21087;-92
2022/06/15 06:06:32;;;;;;;3.35;1.50;;;;;;;13.96;69.73;101132.33;1690269;83;20179;-93
2022/06/15 06:09:00;;;;;;;4.10;1.50;;;;;;;14.10;69.47;101137.52;1710183;82;21060;-91
2022/06/15 06:11:28;;;;;;;5.25;1.32;;;;;;;14.22;69.07;101139.69;1709504;82;20996;-88
2022/06/15 06:13:56;;;;;;;4.70;1.55;;;;;;;14.35;68.76;101137.39;1696822;82;21663;-82
2022/06/15 06:16:23;;;;;;;3.98;1.70;;;;;;;14.47;68.30;101127.67;1709763;82;21112;-95
2022/06/15 06:18:51;;;;;;;5.90;1.90;;;;;;;14.57;67.96;101136.93;1709442;82;21066;-88
2022/06/15 06:21:19;;;;;;;4.35;1.02;;;;;;;14.70;67.40;101138.60;1707629;82;21058;-91
2022/06/15 06:23:48;;;;;;;4.42;1.42;;;;;;;14.83;66.95;101135.84;1694466;82;21074;-89
2022/06/15 06:26:28;;;;;;;2.37;1.12;;;;;;;14.98;66.68;101142.70;1709900;82;21594;-89
2022/06/15 06:28:56;;;;;;;3.35;1.25;;;;;;;15.10;66.00;101139.50;1713239;82;21774;-86
2022/06/15 06:31:24;;;;;;;5.35;1.20;;;;;;;15.23;65.58;101134.08;1714662;82;21053;-86
2022/06/15 06:33:52;;;;;;;2.50;0.85;;;;;;;15.34;65.27;101133.13;1689836;82;21043;-86
2022/06/15 06:36:33;;;;;;;5.95;1.37;;;;;;;15.47;64.93;101136.56;1716447;82;21517;-86
2022/06/15 06:39:04;;;;;;;3.12;0.80;;;;;;;15.60;64.65;101137.25;1716337;82;21042;-87
2022/06/15 06:41:32;;;;;;;1.65;0.70;;;;;;;15.73;64.08;101140.19;1716391;82;21117;-81
2022/06/15 06:44:02;;;;;;;5.28;0.98;;;;;;;15.86;63.81;101146.24;1716384;82;21034;-86
2022/06/15 06:46:29;;;;;;;2.98;0.95;;;;;;;15.97;63.23;101138.66;1716493;82;21035;-86
2022/06/15 06:48:57;;;;;;;5.87;0.90;;;;;;;16.08;62.74;101144.75;1716348;82;21561;-84
2022/06/15 06:51:26;;;;;;;2.65;1.10;;;;;;;16.17;62.10;101140.33;1716433;82;21038;-86
2022/06/15 06:53:53;;;;;;;3.40;1.45;;;;;;;16.25;61.83;101128.44;1716347;82;21133;-85
2022/06/15 06:56:20;;;;;;;2.80;0.70;;;;;;;16.38;61.53;101129.15;1716375;82;22014;-85
2022/06/15 06:58:47;;;;;;;1.55;0.65;;;;;;;16.48;60.81;101129.09;1716592;82;21078;-86
2022/06/15 07:01:14;;;;;;;1.67;0.70;;;;;;;16.57;60.42;101128.65;1716457;82;20999;-88
2022/06/15 07:03:41;;;;;;;3.10;1.17;;;;;;;16.66;59.85;101125.53;1716640;82;20987;-79
2022/06/15 07:06:10;;;;;;;3.90;0.93;;;;;;;16.73;59.49;101134.84;1716483;82;21125;-80
2022/06/15 07:08:38;;;;;;;2.60;1.05;;;;;;;16.84;59.74;101136.13;1716508;82;21038;-87
2022/06/15 07:11:12;;;;;;;4.15;0.80;;;;;;;16.95;59.16;101131.98;1715184;82;21081;-84
2022/06/15 07:13:43;;;;;;;3.98;0.88;;;;;;;17.02;58.55;101133.86;1716085;82;20987;-90
2022/06/15 07:16:19;;;;;;;4.00;0.90;;;;;;;17.07;58.12;101136.25;1715169;82;21520;-85
2022/06/15 07:18:48;;;;;;;3.50;1.00;;;;;;;17.10;57.80;101135.64;1715298;82;21132;-86
2022/06/15 07:21:20;;;;;;;3.50;0.70;;;;;;;17.21;57.83;101128.91;1715033;82;21054;-84
2022/06/15 07:23:50;;;;;;;4.97;1.50;;;;;;;17.30;57.49;101135.91;1715285;82;21417;-81
2022/06/15 07:26:22;;;;;;;4.83;0.90;;;;;;;17.38;57.11;101134.18;1715234;82;21607;-85
2022/06/15 07:28:50;;;;;;;3.67;1.00;;;;;;;17.46;56.70;101131.97;1715232;82;21465;-82
2022/06/15 07:31:25;;;;;;;3.58;0.98;;;;;;;17.63;56.36;101129.73;1715996;82;22148;-84
2022/06/15 07:33:54;;;;;;;3.80;0.85;;;;;;;17.63;56.36;101129.73;1691587;82;21547;-87
2022/06/15 07:36:23;;;;;;;2.65;0.90;;;;;;;17.74;55.95;101119.38;1716172;82;21053;-83
2022/06/15 07:38:53;;;;;;;2.12;0.90;;;;;;;17.82;55.37;101120.33;1716215;82;21057;-85
2022/06/15 07:41:21;;;;;;;;;;;;;;;17.89;55.31;101112.86;1718827;82;21636;-87
2022/06/15 07:43:49;;;;;;;2.33;0.90;;;;;;;17.99;54.76;101107.44;1716125;82;21130;-86
2022/06/15 07:46:17;;;;;;;3.85;1.02;;;;;;;18.10;54.96;101110.81;1716142;82;21094;-86
2022/06/15 07:51:43;;;;;;;3.05;1.00;;;;;;;18.26;54.63;101096.56;1716136;82;21094;-87
2022/06/15 07:54:14;;;;;;;4.03;1.17;;;;;;;18.37;53.89;101102.55;1716214;82;22023;-86
2022/06/15 07:56:43;;;;;;;4.62;0.90;;;;;;;18.38;53.48;101109.59;1716315;82;21116;-87
2022/06/15 07:59:13;;;;;;;6.10;1.03;;;;;;;18.40;52.94;101113.45;1716308;82;21567;-87
2022/06/15 08:01:43;;;;;;;4.45;0.98;;;;;;;18.38;52.83;101097.64;1716602;82;21018;-82
2022/06/15 08:04:11;;;;;;;3.55;1.00;;;;;;;18.45;52.97;101097.64;1716255;82;21462;-82
2022/06/15 08:06:41;;;;;;;6.58;1.30;;;;;;;18.59;53.04;101102.14;1716308;82;20987;-87
2022/06/15 08:09:09;;;;;;;4.47;0.98;;;;;;;18.76;53.01;101105.17;1716113;82;21082;-86
2022/06/15 08:11:39;;;;;;;4.15;0.95;;;;;;;18.89;51.97;101106.12;1716177;82;21058;-87
2022/06/15 08:14:06;;;;;;;2.77;0.72;;;;;;;18.89;51.62;101098.63;1716171;82;22132;-88
2022/06/15 08:16:34;;;;;;;4.03;1.00;;;;;;;19.03;51.58;101099.12;1716356;82;21030;-88
2022/06/15 08:19:03;;;;;;;3.02;0.80;;;;;;;19.17;51.52;101106.61;1716129;82;20995;-87
2022/06/15 08:21:35;;;;;;;3.40;1.15;;;;;;;19.30;51.06;101109.85;1696409;82;21126;-87
2022/06/15 08:24:03;;;;;;;3.45;0.80;;;;;;;19.40;50.84;101103.02;1716084;82;21028;-83
2022/06/15 08:26:36;;;;;;;5.10;0.88;;;;;;;19.49;50.35;101105.09;1716251;82;21030;-87
2022/06/15 08:29:11;;;;;;;2.50;0.85;;;;;;;19.53;50.18;101099.09;1713754;82;21020;-82
2022/06/15 08:31:41;;;;;;;3.33;1.07;;;;;;;19.65;49.73;101093.46;1711194;82;21433;-87
2022/06/15 08:34:09;;;;;;;4.30;0.90;;;;;;;19.73;49.38;101088.54;1686832;82;21928;-87
2022/06/15 08:36:36;;;;;;;3.40;1.07;;;;;;;19.74;49.08;101083.13;1711126;82;21346;-86
2022/06/15 08:39:06;;;;;;;4.58;1.47;;;;;;;19.71;48.63;101083.33;1711250;82;21003;-86
2022/06/15 08:42:11;;;;;;;3.65;0.80;;;;;;;19.70;48.64;101075.44;1711347;82;21064;-87
2022/06/15 08:45:09;;;;;;;4.00;0.80;;;;;;;19.88;49.44;101072.93;1710394;82;21018;-87
2022/06/15 08:48:04;;;;;;;4.10;0.83;;;;;;;20.07;48.64;101072.58;1710477;82;21134;-87
2022/06/15 08:51:01;;;;;;;3.25;0.75;;;;;;;20.17;48.21;101071.47;1711286;82;21055;-86
2022/06/15 08:54:04;;;;;;;2.37;0.80;;;;;;;20.22;48.22;101067.55;1710787;82;21561;-82
2022/06/15 08:56:44;;;;;;;3.33;0.80;;;;;;;20.37;47.85;101069.68;1711166;82;21563;-83
2022/06/15 08:59:23;;;;;;;4.08;1.10;;;;;;;20.39;47.23;101064.23;1711146;82;21504;-87
2022/06/15 09:02:14;;;;;;;2.95;0.88;;;;;;;20.40;47.02;101069.95;1711527;82;21153;-86
2022/06/15 09:04:53;;;;;;;2.35;0.80;;;;;;;20.44;46.64;101066.95;1711129;82;21007;-87
2022/06/15 09:08:00;;;;;;;4.67;0.93;;;;;;;20.45;46.76;101067.35;1710873;82;21586;-82
2022/06/15 09:10:48;;;;;;;3.17;0.93;;;;;;;20.60;46.88;101071.28;1673019;85;21079;-88
2022/06/15 09:13:26;;;;;;;2.80;0.75;;;;;;;20.90;46.61;101067.83;1669607;84;21058;-82
2022/06/15 09:16:26;;;;;;;2.60;0.78;;;;;;;21.09;46.38;101071.84;1675923;84;21321;-82
2022/06/15 09:19:02;;;;;;;3.80;0.90;;;;;;;21.30;45.77;101068.16;1675125;84;21178;-82
2022/06/15 09:21:35;;;;;;;2.05;0.80;;;;;;;21.34;45.41;101062.50;1668303;84;21035;-86
2022/06/15 09:24:23;;;;;;;4.80;0.90;;;;;;;21.38;45.19;101062.67;1662253;84;21590;-84
2022/06/15 09:27:03;;;;;;;2.67;0.90;;;;;;;21.52;45.13;101064.34;1656217;84;22464;-86
2022/06/15 09:29:44;;;;;;;5.42;0.90;;;;;;;21.69;44.75;101057.77;1676199;84;21135;-86
2022/06/15 09:32:22;;;;;;;2.20;0.70;;;;;;;21.80;44.53;101055.16;1667768;84;21074;-87
2022/06/15 09:35:19;;;;;;;4.33;0.93;;;;;;;21.86;44.42;101055.69;1653946;84;21043;-86
2022/06/15 09:37:53;;;;;;;4.22;1.05;;;;;;;21.99;44.20;101060.48;1671011;84;21074;-86
2022/06/15 09:40:23;;;;;;;2.75;0.80;;;;;;;22.09;43.68;101054.84;1677902;84;21086;-84
2022/06/15 09:43:23;;;;;;;1.62;1.00;;;;;;;22.20;43.31;101055.40;1677741;84;21138;-86
2022/06/15 09:46:05;;;;;;;;;;;;;;;22.22;42.70;101049.44;1721636;82;21563;-85
2022/06/15 09:48:58;;;;;;;5.15;0.90;;;;;;;22.22;42.44;101050.28;1723571;82;20169;-85
2022/06/15 09:51:49;;;;;;;3.20;0.90;;;;;;;22.36;42.68;101047.89;1724261;82;21050;-84
2022/06/15 09:55:06;;;;;;;3.00;0.90;;;;;;;22.50;42.81;101040.16;1723534;82;21171;-84
2022/06/15 09:57:32;;;;;;;3.10;0.90;;;;;;;22.65;42.70;101037.66;1710362;81;21132;-83
2022/06/15 10:00:04;;;;;;;3.20;0.80;;;;;;;22.84;42.38;101030.88;1722513;81;21492;-84
2022/06/15 10:02:37;;;;;;;4.67;1.00;;;;;;;22.99;42.45;101036.86;1721590;82;21043;-85
2022/06/15 10:05:09;;;;;;;2.08;0.72;;;;;;;23.11;41.87;101036.75;1659030;85;22322;-85
2022/06/15 10:07:41;;;;;;;1.70;0.60;;;;;;;23.18;41.73;101034.42;1722237;82;21038;-85
2022/06/15 10:10:35;;;;;;;2.55;1.00;;;;;;;23.21;40.71;101036.00;1722281;82;21113;-86
2022/06/15 10:13:19;;;;;;;2.92;0.68;;;;;;;23.15;40.52;101032.84;1721123;81;21074;-84
2022/06/15 10:16:06;;;;;;;3.40;0.82;;;;;;;23.24;40.27;101032.59;1722341;82;21035;-85
2022/06/15 10:18:51;;;;;;;4.00;0.90;;;;;;;23.45;40.42;101026.00;1722099;82;21058;-85
2022/06/15 10:21:24;;;;;;;4.67;0.90;;;;;;;23.65;40.42;101030.21;1686282;83;21086;-86
2022/06/15 10:24:18;;;;;;;1.25;0.62;;;;;;;23.82;39.55;101028.36;1723045;81;21440;-86
2022/06/15 10:26:51;;;;;;;2.42;0.62;;;;;;;23.89;38.98;101024.67;1711167;82;21039;-84
2022/06/15 10:29:27;;;;;;;2.12;0.60;;;;;;;24.02;38.97;101021.33;1722939;82;21030;-86
2022/06/15 10:32:12;;;;;;;2.50;0.70;;;;;;;24.16;38.65;101022.35;1724787;82;21086;-86
2022/06/15 10:35:13;;;;;;;3.02;1.00;;;;;;;24.32;38.43;101019.73;1673913;84;21058;-85
2022/06/15 10:37:51;;;;;;;2.87;0.62;;;;;;;24.45;38.13;101020.41;1726258;82;21786;-86
2022/06/15 10:40:29;;;;;;;2.02;0.70;;;;;;;24.68;38.02;101018.42;1726215;82;21998;-86
2022/06/15 10:43:18;;;;;;;2.37;0.45;;;;;;;24.93;37.62;101013.95;1726502;82;21034;-88
2022/06/15 10:46:03;;;;;;;1.82;0.60;;;;;;;25.23;37.24;101014.09;1726323;82;21026;-87
2022/06/15 10:48:49;;;;;;;3.27;0.80;;;;;;;25.60;37.33;101002.22;1726567;82;21050;-86
2022/06/15 10:51:33;;;;;;;1.80;0.80;;;;;;;26.01;36.76;101001.63;1726172;82;21182;-87
2022/06/15 10:54:24;;;;;;;1.47;0.70;;;;;;;26.41;36.50;100998.76;1726456;82;21046;-86
2022/06/15 11:02:40;;;;;;;2.75;0.72;;;;;;;27.24;34.85;100991.31;1726269;82;21520;-87
2022/06/15 11:05:15;;;;;;;3.37;0.60;;;;;;;27.28;34.37;100996.25;1726416;82;21943;-84
2022/06/15 11:08:02;;;;;;;2.72;0.80;;;;;;;27.43;34.42;100996.57;1724529;82;21057;-88
2022/06/15 11:10:38;;;;;;;2.87;0.65;;;;;;;27.55;34.06;100994.02;1726124;82;21021;-82
2022/06/15 11:13:35;;;;;;;2.52;0.90;;;;;;;27.66;33.63;100997.00;1726273;82;21417;-87
2022/06/15 11:19:21;;;;;;;1.55;0.60;;;;;;;28.15;33.98;100988.50;1726382;82;21099;-86
2022/06/15 11:21:53;;;;;;;3.52;0.70;;;;;;;28.37;33.28;100987.14;1726336;82;21070;-86
2022/06/15 11:24:44;;;;;;;3.85;0.75;;;;;;;28.36;33.16;100980.91;1723067;82;21046;-85
2022/06/15 11:27:38;;;;;;;1.85;0.80;;;;;;;28.39;32.73;100977.05;1726219;82;20990;-86
2022/06/15 11:30:33;;;;;;;2.33;0.80;;;;;;;28.38;32.65;100972.17;1706824;82;39555;-86
2022/06/15 11:33:20;;;;;;;2.37;0.70;;;;;;;28.54;32.26;100978.17;1702141;82;21116;-85
2022/06/15 11:36:25;;;;;;;1.77;0.60;;;;;;;28.61;32.01;100972.50;1710774;82;21078;-86
2022/06/15 11:38:57;;;;;;;2.58;0.80;;;;;;;28.68;32.04;100963.24;1715914;82;21046;-85
2022/06/15 11:41:30;;;;;;;1.82;0.50;;;;;;;28.87;31.89;100964.34;1716387;82;21042;-86
2022/06/15 11:43:59;;;;;;;1.47;0.60;;;;;;;29.05;32.00;100960.75;1711587;82;21105;-86
2022/06/15 11:47:05;;;;;;;6.03;0.90;;;;;;;29.18;32.06;100954.36;1715126;82;21121;-83
2022/06/15 11:50:11;;;;;;;1.98;0.70;;;;;;;29.27;31.63;100952.55;1716106;82;21038;-83
2022/06/15 11:52:55;;;;;;;2.27;0.85;;;;;;;29.27;31.31;100951.20;1714250;82;21046;-83
2022/06/15 11:55:47;;;;;;;2.20;0.85;;;;;;;29.33;31.20;100945.13;1712658;82;21054;-87
2022/06/15 11:58:47;;;;;;;0.68;0.50;;;;;;;29.46;30.56;100954.95;1709553;82;22246;-87
2022/06/15 12:01:42;;;;;;;1.30;0.65;;;;;;;29.34;30.14;100953.05;1713378;82;21900;-88
2022/06/15 12:04:32;;;;;;;2.37;0.60;;;;;;;29.30;30.02;100950.35;1715636;82;21106;-89
2022/06/15 12:07:33;;;;;;;1.22;0.50;;;;;;;29.32;29.88;100950.17;1713155;82;21055;-92
2022/06/15 12:10:17;;;;;;;2.25;0.60;;;;;;;29.37;29.87;100946.98;1714185;82;21484;-85
2022/06/15 12:12:59;;;;;;;1.87;0.65;;;;;;;29.46;29.90;100942.80;1713394;82;21054;-81
2022/06/15 12:15:46;;;;;;;2.17;0.65;;;;;;;29.53;29.88;100941.61;1715109;82;21053;-84
2022/06/15 12:18:36;;;;;;;1.87;0.55;;;;;;;29.51;29.45;100935.52;1713569;82;20992;-84
2022/06/15 12:21:30;;;;;;;4.40;0.60;;;;;;;29.44;29.43;100939.41;1714490;82;21429;-76
2022/06/15 12:24:29;;;;;;;1.62;0.65;;;;;;;29.57;29.41;100945.16;1713245;82;21039;-77